sensor_id;sensor_type;location;lat;lon;timestamp;temperature;humidity
21622;DHT22;10973;46.706;12.340;2023-04-24T00:01:25;9.00;99.90
21622;DHT22;10973;46.706;12.340;2023-04-24T00:03:52;9.00;99.90
21622;DHT22;10973;46.706;12.340;2023-04-24T00:06:20;9.00;99.90
21622;DHT22;10973;46.706;12.340;2023-04-24T00:08:47;9.00;99.90
21622;DHT22;10973;46.706;12.340;2023-04-24T00:11:14;9.00;99.90
21622;DHT22;10973;46.706;12.340;2023-04-24T00:13:42;8.90;99.90
21622;DHT22;10973;46.706;12.340;2023-04-24T00:16:09;8.80;99.90
21622;DHT22;10973;46.706;12.340;2023-04-24T00:18:36;8.80;99.90
21622;DHT22;10973;46.706;12.340;2023-04-24T00:21:04;8.80;99.90
21622;DHT22;10973;46.706;12.340;2023-04-24T00:23:31;8.80;99.90
21622;DHT22;10973;46.706;12.340;2023-04-24T00:25:59;8.80;99.90
21622;DHT22;10973;46.706;12.340;2023-04-24T00:28:26;8.80;99.90
21622;DHT22;10973;46.706;12.340;2023-04-24T00:30:53;8.60;99.90
21622;DHT22;10973;46.706;12.340;2023-04-24T00:33:21;8.70;99.90
21622;DHT22;10973;46.706;12.340;2023-04-24T00:35:48;8.70;99.90
21622;DHT22;10973;46.706;12.340;2023-04-24T00:38:16;8.70;99.90
21622;DHT22;10973;46.706;12.340;2023-04-24T00:40:43;8.70;99.90
21622;DHT22;10973;46.706;12.340;2023-04-24T00:43:10;8.70;99.90
21622;DHT22;10973;46.706;12.340;2023-04-24T00:45:38;8.60;99.90
21622;DHT22;10973;46.706;12.340;2023-04-24T00:48:05;8.70;99.90
21622;DHT22;10973;46.706;12.340;2023-04-24T00:50:36;8.70;99.90
21622;DHT22;10973;46.706;12.340;2023-04-24T00:53:04;8.70;99.90
21622;DHT22;10973;46.706;12.340;2023-04-24T00:55:32;8.60;99.90
21622;DHT22;10973;46.706;12.340;2023-04-24T00:57:59;8.50;99.90
21622;DHT22;10973;46.706;12.340;2023-04-24T01:00:27;8.50;99.90
21622;DHT22;10973;46.706;12.340;2023-04-24T01:02:55;8.50;99.90
21622;DHT22;10973;46.706;12.340;2023-04-24T01:05:25;8.50;99.90
21622;DHT22;10973;46.706;12.340;2023-04-24T01:07:53;8.50;99.90
21622;DHT22;10973;46.706;12.340;2023-04-24T01:10:20;8.40;99.90
21622;DHT22;10973;46.706;12.340;2023-04-24T01:12:48;8.40;99.90
21622;DHT22;10973;46.706;12.340;2023-04-24T01:15:15;8.40;99.90
21622;DHT22;10973;46.706;12.340;2023-04-24T01:17:42;8.30;99.90
21622;DHT22;10973;46.706;12.340;2023-04-24T01:20:10;8.30;99.90
21622;DHT22;10973;46.706;12.340;2023-04-24T01:22:37;8.30;99.90
21622;DHT22;10973;46.706;12.340;2023-04-24T01:25:05;8.30;99.90
21622;DHT22;10973;46.706;12.340;2023-04-24T01:27:32;8.30;99.90
21622;DHT22;10973;46.706;12.340;2023-04-24T01:30:00;8.30;99.90
21622;DHT22;10973;46.706;12.340;2023-04-24T01:32:28;8.30;99.90
21622;DHT22;10973;46.706;12.340;2023-04-24T01:34:56;8.30;99.90
21622;DHT22;10973;46.706;12.340;2023-04-24T01:37:24;8.30;99.90
21622;DHT22;10973;46.706;12.340;2023-04-24T01:39:51;8.20;99.90
21622;DHT22;10973;46.706;12.340;2023-04-24T01:42:19;8.20;99.90
21622;DHT22;10973;46.706;12.340;2023-04-24T01:44:47;8.20;99.90
21622;DHT22;10973;46.706;12.340;2023-04-24T01:47:14;8.10;99.90
21622;DHT22;10973;46.706;12.340;2023-04-24T01:49:42;8.10;99.90
21622;DHT22;10973;46.706;12.340;2023-04-24T01:52:10;8.20;99.90
21622;DHT22;10973;46.706;12.340;2023-04-24T01:54:37;8.10;99.90
21622;DHT22;10973;46.706;12.340;2023-04-24T01:57:05;8.10;99.90
21622;DHT22;10973;46.706;12.340;2023-04-24T01:59:33;8.10;99.90
21622;DHT22;10973;46.706;12.340;2023-04-24T02:02:02;8.10;99.90
21622;DHT22;10973;46.706;12.340;2023-04-24T02:04:29;8.00;99.90
21622;DHT22;10973;46.706;12.340;2023-04-24T02:06:57;8.00;99.90
21622;DHT22;10973;46.706;12.340;2023-04-24T02:09:24;8.00;99.90
21622;DHT22;10973;46.706;12.340;2023-04-24T02:11:51;8.00;99.90
21622;DHT22;10973;46.706;12.340;2023-04-24T02:14:19;7.90;99.90
21622;DHT22;10973;46.706;12.340;2023-04-24T02:16:46;7.90;99.90
21622;DHT22;10973;46.706;12.340;2023-04-24T02:19:13;7.90;99.90
21622;DHT22;10973;46.706;12.340;2023-04-24T02:21:41;7.90;99.90
21622;DHT22;10973;46.706;12.340;2023-04-24T02:24:08;7.90;99.90
21622;DHT22;10973;46.706;12.340;2023-04-24T02:26:36;7.90;99.90
21622;DHT22;10973;46.706;12.340;2023-04-24T02:29:03;7.90;99.90
21622;DHT22;10973;46.706;12.340;2023-04-24T02:31:30;7.90;99.90
21622;DHT22;10973;46.706;12.340;2023-04-24T02:33:58;8.00;99.90
21622;DHT22;10973;46.706;12.340;2023-04-24T02:36:25;8.00;99.90
21622;DHT22;10973;46.706;12.340;2023-04-24T02:38:52;8.00;99.90
21622;DHT22;10973;46.706;12.340;2023-04-24T02:41:20;8.00;99.90
21622;DHT22;10973;46.706;12.340;2023-04-24T02:43:47;8.00;99.90
21622;DHT22;10973;46.706;12.340;2023-04-24T02:46:14;8.00;99.90
21622;DHT22;10973;46.706;12.340;2023-04-24T02:48:42;8.00;99.90
21622;DHT22;10973;46.706;12.340;2023-04-24T02:51:09;8.00;99.90
21622;DHT22;10973;46.706;12.340;2023-04-24T02:53:36;8.00;99.90
21622;DHT22;10973;46.706;12.340;2023-04-24T02:56:04;8.00;99.90
21622;DHT22;10973;46.706;12.340;2023-04-24T02:58:31;7.90;99.90
21622;DHT22;10973;46.706;12.340;2023-04-24T03:00:59;7.90;99.90
21622;DHT22;10973;46.706;12.340;2023-04-24T03:03:26;7.90;99.90
21622;DHT22;10973;46.706;12.340;2023-04-24T03:05:54;7.90;99.90
21622;DHT22;10973;46.706;12.340;2023-04-24T03:08:21;7.90;99.90
21622;DHT22;10973;46.706;12.340;2023-04-24T03:10:49;7.90;99.90
21622;DHT22;10973;46.706;12.340;2023-04-24T03:13:17;7.90;99.90
21622;DHT22;10973;46.706;12.340;2023-04-24T03:15:45;7.80;99.90
21622;DHT22;10973;46.706;12.340;2023-04-24T03:18:12;7.80;99.90
21622;DHT22;10973;46.706;12.340;2023-04-24T03:20:40;7.80;99.90
21622;DHT22;10973;46.706;12.340;2023-04-24T03:23:07;7.80;99.90
21622;DHT22;10973;46.706;12.340;2023-04-24T03:25:35;7.80;99.90
21622;DHT22;10973;46.706;12.340;2023-04-24T03:28:02;7.80;99.90
21622;DHT22;10973;46.706;12.340;2023-04-24T03:30:29;7.90;99.90
21622;DHT22;10973;46.706;12.340;2023-04-24T03:32:56;7.80;99.90
21622;DHT22;10973;46.706;12.340;2023-04-24T03:35:24;7.80;99.90
21622;DHT22;10973;46.706;12.340;2023-04-24T03:37:51;7.80;99.90
21622;DHT22;10973;46.706;12.340;2023-04-24T03:40:19;7.70;99.90
21622;DHT22;10973;46.706;12.340;2023-04-24T03:42:46;7.70;99.90
21622;DHT22;10973;46.706;12.340;2023-04-24T03:45:13;7.80;99.90
21622;DHT22;10973;46.706;12.340;2023-04-24T03:47:41;7.80;99.90
21622;DHT22;10973;46.706;12.340;2023-04-24T03:50:08;7.80;99.90
21622;DHT22;10973;46.706;12.340;2023-04-24T03:52:38;7.80;99.90
21622;DHT22;10973;46.706;12.340;2023-04-24T03:55:06;7.80;99.90
21622;DHT22;10973;46.706;12.340;2023-04-24T03:57:34;7.90;99.90
21622;DHT22;10973;46.706;12.340;2023-04-24T04:00:01;7.90;99.90
21622;DHT22;10973;46.706;12.340;2023-04-24T04:02:29;7.90;99.90
21622;DHT22;10973;46.706;12.340;2023-04-24T04:04:56;7.90;99.90
21622;DHT22;10973;46.706;12.340;2023-04-24T04:07:24;7.80;99.90
21622;DHT22;10973;46.706;12.340;2023-04-24T04:09:51;7.80;99.90
21622;DHT22;10973;46.706;12.340;2023-04-24T04:12:18;7.80;99.90
21622;DHT22;10973;46.706;12.340;2023-04-24T04:14:45;7.80;99.90
21622;DHT22;10973;46.706;12.340;2023-04-24T04:17:13;7.80;99.90
21622;DHT22;10973;46.706;12.340;2023-04-24T04:19:40;7.70;99.90
21622;DHT22;10973;46.706;12.340;2023-04-24T04:22:08;7.60;99.90
21622;DHT22;10973;46.706;12.340;2023-04-24T04:24:35;7.60;99.90
21622;DHT22;10973;46.706;12.340;2023-04-24T04:27:03;7.60;99.90
21622;DHT22;10973;46.706;12.340;2023-04-24T04:29:31;7.50;99.90
21622;DHT22;10973;46.706;12.340;2023-04-24T04:31:59;7.50;99.90
21622;DHT22;10973;46.706;12.340;2023-04-24T04:34:26;7.50;99.90
21622;DHT22;10973;46.706;12.340;2023-04-24T04:36:53;7.40;99.90
21622;DHT22;10973;46.706;12.340;2023-04-24T04:39:21;7.50;99.90
21622;DHT22;10973;46.706;12.340;2023-04-24T04:41:48;7.50;99.90
21622;DHT22;10973;46.706;12.340;2023-04-24T04:44:15;7.40;99.90
21622;DHT22;10973;46.706;12.340;2023-04-24T04:46:43;7.40;99.90
21622;DHT22;10973;46.706;12.340;2023-04-24T04:49:10;7.40;99.90
21622;DHT22;10973;46.706;12.340;2023-04-24T04:51:38;7.40;99.90
21622;DHT22;10973;46.706;12.340;2023-04-24T04:54:08;7.40;99.90
21622;DHT22;10973;46.706;12.340;2023-04-24T04:56:36;7.40;99.90
21622;DHT22;10973;46.706;12.340;2023-04-24T04:59:03;7.40;99.90
21622;DHT22;10973;46.706;12.340;2023-04-24T05:01:31;7.40;99.90
21622;DHT22;10973;46.706;12.340;2023-04-24T05:03:58;7.40;99.90
21622;DHT22;10973;46.706;12.340;2023-04-24T05:06:26;7.40;99.90
21622;DHT22;10973;46.706;12.340;2023-04-24T05:08:53;7.40;99.90
21622;DHT22;10973;46.706;12.340;2023-04-24T05:11:21;7.40;99.90
21622;DHT22;10973;46.706;12.340;2023-04-24T05:13:48;7.40;99.90
21622;DHT22;10973;46.706;12.340;2023-04-24T05:16:15;7.40;99.90
21622;DHT22;10973;46.706;12.340;2023-04-24T05:18:43;7.40;99.90
21622;DHT22;10973;46.706;12.340;2023-04-24T05:21:10;7.50;99.90
21622;DHT22;10973;46.706;12.340;2023-04-24T05:23:37;7.60;99.90
21622;DHT22;10973;46.706;12.340;2023-04-24T05:26:05;7.50;99.90
21622;DHT22;10973;46.706;12.340;2023-04-24T05:28:33;7.50;99.90
21622;DHT22;10973;46.706;12.340;2023-04-24T05:31:01;7.40;99.90
21622;DHT22;10973;46.706;12.340;2023-04-24T05:33:29;7.40;99.90
21622;DHT22;10973;46.706;12.340;2023-04-24T05:35:58;7.30;99.90
21622;DHT22;10973;46.706;12.340;2023-04-24T05:38:26;7.30;99.90
21622;DHT22;10973;46.706;12.340;2023-04-24T05:40:53;7.30;99.90
21622;DHT22;10973;46.706;12.340;2023-04-24T05:43:21;7.20;99.90
21622;DHT22;10973;46.706;12.340;2023-04-24T05:45:48;7.00;99.90
21622;DHT22;10973;46.706;12.340;2023-04-24T05:48:15;6.90;99.90
21622;DHT22;10973;46.706;12.340;2023-04-24T05:50:43;6.70;99.90
21622;DHT22;10973;46.706;12.340;2023-04-24T05:53:10;6.80;99.90
21622;DHT22;10973;46.706;12.340;2023-04-24T05:55:37;6.80;99.90
21622;DHT22;10973;46.706;12.340;2023-04-24T05:58:05;6.80;99.90
21622;DHT22;10973;46.706;12.340;2023-04-24T06:03:00;6.60;99.90
21622;DHT22;10973;46.706;12.340;2023-04-24T06:05:28;6.40;99.90
21622;DHT22;10973;46.706;12.340;2023-04-24T06:07:55;6.30;99.90
21622;DHT22;10973;46.706;12.340;2023-04-24T06:10:23;6.30;99.90
21622;DHT22;10973;46.706;12.340;2023-04-24T06:12:51;6.20;99.90
21622;DHT22;10973;46.706;12.340;2023-04-24T06:15:18;6.10;99.90
21622;DHT22;10973;46.706;12.340;2023-04-24T06:17:45;6.20;99.90
21622;DHT22;10973;46.706;12.340;2023-04-24T06:20:13;6.20;99.90
21622;DHT22;10973;46.706;12.340;2023-04-24T06:22:40;6.20;99.90
21622;DHT22;10973;46.706;12.340;2023-04-24T06:25:08;6.20;99.90
21622;DHT22;10973;46.706;12.340;2023-04-24T06:27:35;6.20;99.90
21622;DHT22;10973;46.706;12.340;2023-04-24T06:30:03;6.10;99.90
21622;DHT22;10973;46.706;12.340;2023-04-24T06:32:30;6.10;99.90
21622;DHT22;10973;46.706;12.340;2023-04-24T06:34:58;6.10;99.90
21622;DHT22;10973;46.706;12.340;2023-04-24T06:37:25;6.10;99.90
21622;DHT22;10973;46.706;12.340;2023-04-24T06:39:53;6.00;99.90
21622;DHT22;10973;46.706;12.340;2023-04-24T06:42:20;5.90;99.90
21622;DHT22;10973;46.706;12.340;2023-04-24T06:44:48;5.90;99.90
21622;DHT22;10973;46.706;12.340;2023-04-24T06:47:15;5.90;99.90
21622;DHT22;10973;46.706;12.340;2023-04-24T06:49:42;5.90;99.90
21622;DHT22;10973;46.706;12.340;2023-04-24T06:52:10;5.80;99.90
21622;DHT22;10973;46.706;12.340;2023-04-24T06:54:37;5.70;99.90
21622;DHT22;10973;46.706;12.340;2023-04-24T06:57:05;5.60;99.90
21622;DHT22;10973;46.706;12.340;2023-04-24T07:02:00;5.60;99.90
21622;DHT22;10973;46.706;12.340;2023-04-24T07:04:27;5.60;99.90
21622;DHT22;10973;46.706;12.340;2023-04-24T07:06:55;5.60;99.90
21622;DHT22;10973;46.706;12.340;2023-04-24T07:09:23;5.50;99.90
21622;DHT22;10973;46.706;12.340;2023-04-24T07:11:52;5.50;99.90
21622;DHT22;10973;46.706;12.340;2023-04-24T07:14:20;5.50;99.90
21622;DHT22;10973;46.706;12.340;2023-04-24T07:16:48;5.40;99.90
21622;DHT22;10973;46.706;12.340;2023-04-24T07:19:16;5.40;99.90
21622;DHT22;10973;46.706;12.340;2023-04-24T07:21:43;5.40;99.90
21622;DHT22;10973;46.706;12.340;2023-04-24T07:24:10;5.50;99.90
21622;DHT22;10973;46.706;12.340;2023-04-24T07:26:38;5.40;99.90
21622;DHT22;10973;46.706;12.340;2023-04-24T07:29:06;5.40;99.90
21622;DHT22;10973;46.706;12.340;2023-04-24T07:31:34;5.20;99.90
21622;DHT22;10973;46.706;12.340;2023-04-24T07:34:02;5.20;99.90
21622;DHT22;10973;46.706;12.340;2023-04-24T07:36:29;5.20;99.90
21622;DHT22;10973;46.706;12.340;2023-04-24T07:38:56;5.20;99.90
21622;DHT22;10973;46.706;12.340;2023-04-24T07:41:24;5.20;99.90
21622;DHT22;10973;46.706;12.340;2023-04-24T07:43:51;5.20;99.90
21622;DHT22;10973;46.706;12.340;2023-04-24T07:46:19;5.20;99.90
21622;DHT22;10973;46.706;12.340;2023-04-24T07:48:47;5.10;99.90
21622;DHT22;10973;46.706;12.340;2023-04-24T07:51:19;5.10;99.90
21622;DHT22;10973;46.706;12.340;2023-04-24T07:53:47;5.10;99.90
21622;DHT22;10973;46.706;12.340;2023-04-24T07:56:14;5.00;99.90
21622;DHT22;10973;46.706;12.340;2023-04-24T07:58:41;5.10;99.90
21622;DHT22;10973;46.706;12.340;2023-04-24T08:01:08;5.10;99.90
21622;DHT22;10973;46.706;12.340;2023-04-24T08:03:36;5.20;99.90
21622;DHT22;10973;46.706;12.340;2023-04-24T08:06:03;5.20;99.90
21622;DHT22;10973;46.706;12.340;2023-04-24T08:08:31;5.10;99.90
21622;DHT22;10973;46.706;12.340;2023-04-24T08:10:59;5.10;99.90
21622;DHT22;10973;46.706;12.340;2023-04-24T08:13:26;4.90;99.90
21622;DHT22;10973;46.706;12.340;2023-04-24T08:15:53;5.20;99.90
21622;DHT22;10973;46.706;12.340;2023-04-24T08:18:21;5.20;99.90
21622;DHT22;10973;46.706;12.340;2023-04-24T08:20:49;5.30;99.90
21622;DHT22;10973;46.706;12.340;2023-04-24T08:23:16;5.40;99.90
21622;DHT22;10973;46.706;12.340;2023-04-24T08:25:43;5.30;99.90
21622;DHT22;10973;46.706;12.340;2023-04-24T08:28:11;5.40;99.90
21622;DHT22;10973;46.706;12.340;2023-04-24T08:30:40;5.50;99.90
21622;DHT22;10973;46.706;12.340;2023-04-24T08:33:07;5.50;99.90
21622;DHT22;10973;46.706;12.340;2023-04-24T08:35:35;5.50;99.90
21622;DHT22;10973;46.706;12.340;2023-04-24T08:38:02;5.60;99.90
21622;DHT22;10973;46.706;12.340;2023-04-24T08:40:34;5.60;99.90
21622;DHT22;10973;46.706;12.340;2023-04-24T08:43:02;5.70;99.90
21622;DHT22;10973;46.706;12.340;2023-04-24T08:45:30;5.80;99.90
21622;DHT22;10973;46.706;12.340;2023-04-24T08:48:00;5.80;99.90
21622;DHT22;10973;46.706;12.340;2023-04-24T08:50:29;5.80;99.90
21622;DHT22;10973;46.706;12.340;2023-04-24T08:52:57;6.00;99.90
21622;DHT22;10973;46.706;12.340;2023-04-24T08:55:25;6.10;99.90
21622;DHT22;10973;46.706;12.340;2023-04-24T08:57:53;6.20;99.90
21622;DHT22;10973;46.706;12.340;2023-04-24T09:00:21;6.30;99.90
21622;DHT22;10973;46.706;12.340;2023-04-24T09:02:49;6.40;99.90
21622;DHT22;10973;46.706;12.340;2023-04-24T09:05:17;6.50;99.90
21622;DHT22;10973;46.706;12.340;2023-04-24T09:07:54;6.50;99.90
21622;DHT22;10973;46.706;12.340;2023-04-24T09:10:26;6.70;99.90
21622;DHT22;10973;46.706;12.340;2023-04-24T09:12:54;6.70;99.90
21622;DHT22;10973;46.706;12.340;2023-04-24T09:15:23;6.70;99.90
21622;DHT22;10973;46.706;12.340;2023-04-24T09:17:52;6.80;99.90
21622;DHT22;10973;46.706;12.340;2023-04-24T09:20:20;6.80;99.90
21622;DHT22;10973;46.706;12.340;2023-04-24T09:22:47;6.90;99.90
21622;DHT22;10973;46.706;12.340;2023-04-24T09:25:16;6.90;99.90
21622;DHT22;10973;46.706;12.340;2023-04-24T09:27:45;6.80;99.90
21622;DHT22;10973;46.706;12.340;2023-04-24T09:30:12;6.90;99.90
21622;DHT22;10973;46.706;12.340;2023-04-24T09:32:41;6.90;99.90
21622;DHT22;10973;46.706;12.340;2023-04-24T09:35:10;6.90;99.90
21622;DHT22;10973;46.706;12.340;2023-04-24T09:37:43;6.90;99.90
21622;DHT22;10973;46.706;12.340;2023-04-24T09:40:19;6.90;99.90
21622;DHT22;10973;46.706;12.340;2023-04-24T09:42:57;7.00;99.90
21622;DHT22;10973;46.706;12.340;2023-04-24T09:45:42;7.10;99.90
21622;DHT22;10973;46.706;12.340;2023-04-24T09:48:10;7.10;99.90
21622;DHT22;10973;46.706;12.340;2023-04-24T09:50:37;7.00;99.90
21622;DHT22;10973;46.706;12.340;2023-04-24T09:53:06;7.10;99.90
21622;DHT22;10973;46.706;12.340;2023-04-24T09:55:40;7.10;99.90
21622;DHT22;10973;46.706;12.340;2023-04-24T09:58:12;7.20;99.90
21622;DHT22;10973;46.706;12.340;2023-04-24T10:00:40;7.20;99.90
21622;DHT22;10973;46.706;12.340;2023-04-24T10:03:07;7.20;99.90
21622;DHT22;10973;46.706;12.340;2023-04-24T10:05:37;7.30;99.90
21622;DHT22;10973;46.706;12.340;2023-04-24T10:08:06;7.30;99.90
21622;DHT22;10973;46.706;12.340;2023-04-24T10:10:39;7.40;99.90
21622;DHT22;10973;46.706;12.340;2023-04-24T10:13:13;7.40;99.90
21622;DHT22;10973;46.706;12.340;2023-04-24T10:15:42;7.40;99.90
21622;DHT22;10973;46.706;12.340;2023-04-24T10:18:10;7.40;99.90
21622;DHT22;10973;46.706;12.340;2023-04-24T10:20:39;7.40;99.90
21622;DHT22;10973;46.706;12.340;2023-04-24T10:23:07;7.40;99.90
21622;DHT22;10973;46.706;12.340;2023-04-24T10:25:35;7.40;99.90
21622;DHT22;10973;46.706;12.340;2023-04-24T10:28:03;7.40;99.90
21622;DHT22;10973;46.706;12.340;2023-04-24T10:30:33;7.50;99.90
21622;DHT22;10973;46.706;12.340;2023-04-24T10:33:06;7.60;99.90
21622;DHT22;10973;46.706;12.340;2023-04-24T10:35:38;7.60;99.90
21622;DHT22;10973;46.706;12.340;2023-04-24T10:38:12;7.70;99.90
21622;DHT22;10973;46.706;12.340;2023-04-24T10:40:42;7.70;99.90
21622;DHT22;10973;46.706;12.340;2023-04-24T10:43:10;7.80;99.90
21622;DHT22;10973;46.706;12.340;2023-04-24T10:46:01;7.80;99.90
21622;DHT22;10973;46.706;12.340;2023-04-24T10:48:29;7.80;99.90
21622;DHT22;10973;46.706;12.340;2023-04-24T10:50:57;7.80;99.90
21622;DHT22;10973;46.706;12.340;2023-04-24T10:53:28;7.80;99.90
21622;DHT22;10973;46.706;12.340;2023-04-24T10:56:03;7.80;99.90
21622;DHT22;10973;46.706;12.340;2023-04-24T10:58:49;7.90;99.90
21622;DHT22;10973;46.706;12.340;2023-04-24T11:01:30;7.80;99.90
21622;DHT22;10973;46.706;12.340;2023-04-24T11:04:00;7.80;99.90
21622;DHT22;10973;46.706;12.340;2023-04-24T11:06:37;7.80;99.90
21622;DHT22;10973;46.706;12.340;2023-04-24T11:09:09;7.80;99.90
21622;DHT22;10973;46.706;12.340;2023-04-24T11:11:38;7.80;99.90
21622;DHT22;10973;46.706;12.340;2023-04-24T11:14:14;7.80;99.90
21622;DHT22;10973;46.706;12.340;2023-04-24T11:16:45;7.90;99.90
21622;DHT22;10973;46.706;12.340;2023-04-24T11:19:22;7.80;99.90
21622;DHT22;10973;46.706;12.340;2023-04-24T11:21:57;7.80;99.90
21622;DHT22;10973;46.706;12.340;2023-04-24T11:24:37;7.80;99.90
21622;DHT22;10973;46.706;12.340;2023-04-24T11:27:16;7.80;99.90
21622;DHT22;10973;46.706;12.340;2023-04-24T11:40:34;8.10;99.90
21622;DHT22;10973;46.706;12.340;2023-04-24T11:43:04;8.20;99.90
21622;DHT22;10973;46.706;12.340;2023-04-24T11:45:34;8.20;99.90
21622;DHT22;10973;46.706;12.340;2023-04-24T11:48:03;8.20;99.90
21622;DHT22;10973;46.706;12.340;2023-04-24T11:50:31;8.30;99.90
21622;DHT22;10973;46.706;12.340;2023-04-24T11:52:58;8.40;99.90
21622;DHT22;10973;46.706;12.340;2023-04-24T11:55:27;8.40;99.90
21622;DHT22;10973;46.706;12.340;2023-04-24T11:57:57;8.50;99.90
21622;DHT22;10973;46.706;12.340;2023-04-24T12:00:28;8.40;99.90
21622;DHT22;10973;46.706;12.340;2023-04-24T12:03:09;8.40;99.90
21622;DHT22;10973;46.706;12.340;2023-04-24T12:05:38;8.50;99.90
21622;DHT22;10973;46.706;12.340;2023-04-24T12:08:07;8.50;99.90
21622;DHT22;10973;46.706;12.340;2023-04-24T12:10:36;8.50;99.90
21622;DHT22;10973;46.706;12.340;2023-04-24T12:13:04;8.60;99.90
21622;DHT22;10973;46.706;12.340;2023-04-24T12:15:31;8.70;99.90
21622;DHT22;10973;46.706;12.340;2023-04-24T12:17:59;8.80;99.90
21622;DHT22;10973;46.706;12.340;2023-04-24T12:20:31;8.90;99.90
21622;DHT22;10973;46.706;12.340;2023-04-24T12:23:00;9.00;99.90
21622;DHT22;10973;46.706;12.340;2023-04-24T12:25:32;9.00;99.90
21622;DHT22;10973;46.706;12.340;2023-04-24T12:30:35;9.20;99.90
21622;DHT22;10973;46.706;12.340;2023-04-24T12:33:07;9.20;99.90
21622;DHT22;10973;46.706;12.340;2023-04-24T12:35:35;9.20;99.90
21622;DHT22;10973;46.706;12.340;2023-04-24T12:38:10;9.20;99.90
21622;DHT22;10973;46.706;12.340;2023-04-24T12:40:42;9.20;99.90
21622;DHT22;10973;46.706;12.340;2023-04-24T12:43:14;9.00;99.90
21622;DHT22;10973;46.706;12.340;2023-04-24T12:45:43;9.00;99.90
21622;DHT22;10973;46.706;12.340;2023-04-24T12:48:11;9.00;99.90
21622;DHT22;10973;46.706;12.340;2023-04-24T12:50:39;9.00;99.90
21622;DHT22;10973;46.706;12.340;2023-04-24T12:53:08;9.20;99.90
21622;DHT22;10973;46.706;12.340;2023-04-24T12:55:36;9.10;99.90
21622;DHT22;10973;46.706;12.340;2023-04-24T12:58:04;9.20;99.90
21622;DHT22;10973;46.706;12.340;2023-04-24T13:00:31;9.30;99.90
21622;DHT22;10973;46.706;12.340;2023-04-24T13:03:00;9.40;99.90
21622;DHT22;10973;46.706;12.340;2023-04-24T13:05:28;9.40;99.90
21622;DHT22;10973;46.706;12.340;2023-04-24T13:07:57;9.40;99.90
21622;DHT22;10973;46.706;12.340;2023-04-24T13:10:25;9.50;99.90
21622;DHT22;10973;46.706;12.340;2023-04-24T13:12:52;9.50;99.90
21622;DHT22;10973;46.706;12.340;2023-04-24T13:15:20;9.40;99.90
21622;DHT22;10973;46.706;12.340;2023-04-24T13:17:49;9.40;99.90
21622;DHT22;10973;46.706;12.340;2023-04-24T13:20:17;9.40;99.90
21622;DHT22;10973;46.706;12.340;2023-04-24T13:22:45;9.50;99.90
21622;DHT22;10973;46.706;12.340;2023-04-24T13:25:12;9.50;99.90
21622;DHT22;10973;46.706;12.340;2023-04-24T13:27:39;9.30;99.90
21622;DHT22;10973;46.706;12.340;2023-04-24T13:30:07;9.40;99.90
21622;DHT22;10973;46.706;12.340;2023-04-24T13:32:35;9.40;99.90
21622;DHT22;10973;46.706;12.340;2023-04-24T13:35:05;9.40;99.90
21622;DHT22;10973;46.706;12.340;2023-04-24T13:37:32;9.50;99.90
21622;DHT22;10973;46.706;12.340;2023-04-24T13:39:59;9.50;99.90
21622;DHT22;10973;46.706;12.340;2023-04-24T13:42:27;9.60;99.90
21622;DHT22;10973;46.706;12.340;2023-04-24T13:44:55;9.70;99.90
21622;DHT22;10973;46.706;12.340;2023-04-24T13:47:22;9.80;99.90
21622;DHT22;10973;46.706;12.340;2023-04-24T13:49:50;9.80;99.90
21622;DHT22;10973;46.706;12.340;2023-04-24T13:52:19;9.80;99.90
21622;DHT22;10973;46.706;12.340;2023-04-24T13:54:47;9.90;99.90
21622;DHT22;10973;46.706;12.340;2023-04-24T13:57:14;10.10;99.90
21622;DHT22;10973;46.706;12.340;2023-04-24T13:59:42;10.30;99.90
21622;DHT22;10973;46.706;12.340;2023-04-24T14:02:09;10.30;99.90
21622;DHT22;10973;46.706;12.340;2023-04-24T14:04:36;10.70;99.90
21622;DHT22;10973;46.706;12.340;2023-04-24T14:07:04;10.80;99.90
21622;DHT22;10973;46.706;12.340;2023-04-24T14:09:32;11.00;99.90
21622;DHT22;10973;46.706;12.340;2023-04-24T14:11:59;11.20;99.90
21622;DHT22;10973;46.706;12.340;2023-04-24T14:14:26;11.30;99.90
21622;DHT22;10973;46.706;12.340;2023-04-24T14:16:54;11.40;99.90
21622;DHT22;10973;46.706;12.340;2023-04-24T14:19:21;11.50;99.90
21622;DHT22;10973;46.706;12.340;2023-04-24T14:21:48;11.60;99.90
21622;DHT22;10973;46.706;12.340;2023-04-24T14:24:15;11.60;99.90
21622;DHT22;10973;46.706;12.340;2023-04-24T14:26:43;11.70;99.90
21622;DHT22;10973;46.706;12.340;2023-04-24T14:29:13;11.70;99.90
21622;DHT22;10973;46.706;12.340;2023-04-24T14:31:41;11.70;99.90
21622;DHT22;10973;46.706;12.340;2023-04-24T14:34:09;11.70;99.90
21622;DHT22;10973;46.706;12.340;2023-04-24T14:36:37;11.90;99.90
21622;DHT22;10973;46.706;12.340;2023-04-24T15:21:01;11.60;99.90
21622;DHT22;10973;46.706;12.340;2023-04-24T15:23:29;11.50;99.90
21622;DHT22;10973;46.706;12.340;2023-04-24T15:25:56;11.20;99.90
21622;DHT22;10973;46.706;12.340;2023-04-24T15:28:24;11.10;99.90
21622;DHT22;10973;46.706;12.340;2023-04-24T15:30:52;10.90;99.90
21622;DHT22;10973;46.706;12.340;2023-04-24T15:33:19;10.70;99.90
21622;DHT22;10973;46.706;12.340;2023-04-24T15:35:46;10.60;99.90
21622;DHT22;10973;46.706;12.340;2023-04-24T15:38:14;10.60;99.90
21622;DHT22;10973;46.706;12.340;2023-04-24T15:40:41;10.50;99.90
21622;DHT22;10973;46.706;12.340;2023-04-24T15:43:09;10.40;99.90
21622;DHT22;10973;46.706;12.340;2023-04-24T15:45:36;10.60;99.90
21622;DHT22;10973;46.706;12.340;2023-04-24T15:48:03;10.60;99.90
21622;DHT22;10973;46.706;12.340;2023-04-24T15:50:31;10.60;99.90
21622;DHT22;10973;46.706;12.340;2023-04-24T15:52:58;11.20;99.90
21622;DHT22;10973;46.706;12.340;2023-04-24T15:55:27;11.70;99.90
21622;DHT22;10973;46.706;12.340;2023-04-24T15:57:55;12.10;99.90
21622;DHT22;10973;46.706;12.340;2023-04-24T16:00:22;12.30;99.90
21622;DHT22;10973;46.706;12.340;2023-04-24T16:02:49;12.50;99.90
21622;DHT22;10973;46.706;12.340;2023-04-24T16:05:17;12.50;99.90
21622;DHT22;10973;46.706;12.340;2023-04-24T16:07:45;12.40;99.90
21622;DHT22;10973;46.706;12.340;2023-04-24T16:10:14;12.20;99.90
21622;DHT22;10973;46.706;12.340;2023-04-24T16:12:42;12.20;99.90
21622;DHT22;10973;46.706;12.340;2023-04-24T16:15:10;12.00;99.90
21622;DHT22;10973;46.706;12.340;2023-04-24T16:17:37;11.80;99.50
21622;DHT22;10973;46.706;12.340;2023-04-24T16:20:05;11.80;99.90
21622;DHT22;10973;46.706;12.340;2023-04-24T16:22:33;11.70;99.90
21622;DHT22;10973;46.706;12.340;2023-04-24T16:25:01;11.60;99.90
21622;DHT22;10973;46.706;12.340;2023-04-24T16:27:31;11.40;99.90
21622;DHT22;10973;46.706;12.340;2023-04-24T16:30:00;11.20;99.90
21622;DHT22;10973;46.706;12.340;2023-04-24T16:32:29;11.00;99.90
21622;DHT22;10973;46.706;12.340;2023-04-24T16:34:57;10.80;99.90
21622;DHT22;10973;46.706;12.340;2023-04-24T16:37:31;10.70;99.90